Date,TemperatureHighF,TemperatureAvgF,TemperatureLowF,DewpointHighF,DewpointAvgF,DewpointLowF,HumidityHigh,HumidityAvg,HumidityLow,PressureMaxIn,PressureMinIn,WindSpeedMaxMPH,WindSpeedAvgMPH,GustSpeedMaxMPH,PrecipitationSumIn
2013-2-1,39,28,20,8,1,-6,34,30,25,29.68,29.18,0,0,0,0.00
2013-2-2,48,25,14,8,-2,-8,36,31,20,29.83,29.62,0,0,0,0.00
2013-2-3,30,24,19,14,9,0,65,52,34,29.65,29.32,0,0,0,0.00
2013-2-4,45,24,15,12,2,-4,64,40,28,29.53,29.29,0,0,0,0.00
2013-2-5,31,25,17,12,4,-1,59,41,32,29.59,29.50,0,0,0,0.00
2013-2-6,48,30,23,22,10,-2,67,44,31,29.88,29.50,0,0,0,0.00
2013-2-7,44,25,14,7,-2,-6,45,30,22,30.09,29.85,0,0,0,0.00
2013-2-8,33,25,17,25,13,-1,83,60,35,30.06,29.18,0,0,0,0.00
2013-2-9,27,20,13,14,4,-8,77,53,36,29.77,29.15,0,0,0,0.00
2013-2-10,47,24,13,7,-1,-8,46,34,19,29.97,29.77,0,0,0,0.00
2013-2-11,37,27,13,30,13,-4,80,56,43,29.91,29.29,0,0,0,0.00
2013-2-12,58,38,29,34,18,13,88,44,26,29.47,29.21,0,0,0,0.00
2013-2-13,57,35,22,22,14,9,59,43,25,29.44,29.29,0,0,0,0.00
2013-2-14,58,36,27,21,13,9,55,40,25,29.59,29.29,0,0,0,0.00
2013-2-15,57,38,23,28,20,11,80,51,28,29.59,29.47,0,0,0,0.00
2013-2-16,40,35,30,26,21,15,75,57,39,29.53,29.41,0,0,0,0.00
2013-2-17,25,21,16,9,1,-7,63,41,32,29.26,29.00,0,0,0,0.00
2013-2-18,36,23,12,6,-5,-10,35,29,22,29.74,29.26,0,0,0,0.00
2013-2-19,54,35,18,37,15,-6,87,47,26,29.77,29.18,0,0,0,0.00
2013-2-20,42,32,24,35,12,0,88,45,30,29.35,29.12,0,0,0,0.00
2013-2-21,44,28,23,13,4,0,43,35,28,29.77,29.35,0,0,0,0.00
2013-2-22,49,32,19,18,10,4,57,41,28,29.94,29.77,0,0,0,0.00
2013-2-23,39,33,27,29,19,12,85,56,41,29.91,29.50,0,0,0,0.00
2013-2-24,36,33,31,32,29,27,92,85,78,29.50,29.26,0,0,0,0.00
2013-2-25,46,35,27,31,24,18,85,67,39,29.83,29.47,0,0,0,0.00
2013-2-26,57,36,27,32,21,16,81,56,31,29.91,29.74,0,0,0,0.00
2013-2-27,40,37,34,38,33,22,92,86,56,29.74,29.15,0,0,0,0.00
2013-2-28,50,37,32,38,29,23,92,74,39,29.21,29.12,0,0,0,0.00